sensor_id;sensor_type;location;lat;lon;timestamp;temperature;humidity
981;DHT22;479;53.514;9.994;2022-08-18T00:01:44;21.10;99.90
981;DHT22;479;53.514;9.994;2022-08-18T00:04:12;21.20;99.90
981;DHT22;479;53.514;9.994;2022-08-18T00:06:39;21.20;99.90
981;DHT22;479;53.514;9.994;2022-08-18T00:09:08;21.30;99.90
981;DHT22;479;53.514;9.994;2022-08-18T00:11:41;21.30;99.90
981;DHT22;479;53.514;9.994;2022-08-18T00:14:13;21.40;99.90
981;DHT22;479;53.514;9.994;2022-08-18T00:16:40;21.40;99.90
981;DHT22;479;53.514;9.994;2022-08-18T00:19:07;21.40;99.90
981;DHT22;479;53.514;9.994;2022-08-18T00:21:34;21.50;99.90
981;DHT22;479;53.514;9.994;2022-08-18T00:24:01;21.40;99.90
981;DHT22;479;53.514;9.994;2022-08-18T00:26:28;21.30;99.90
981;DHT22;479;53.514;9.994;2022-08-18T00:28:55;21.30;99.90
981;DHT22;479;53.514;9.994;2022-08-18T00:31:24;21.20;99.90
981;DHT22;479;53.514;9.994;2022-08-18T00:33:51;21.20;99.90
981;DHT22;479;53.514;9.994;2022-08-18T00:36:18;21.10;99.90
981;DHT22;479;53.514;9.994;2022-08-18T00:38:45;21.10;99.90
981;DHT22;479;53.514;9.994;2022-08-18T00:41:12;21.10;99.90
981;DHT22;479;53.514;9.994;2022-08-18T00:43:42;21.20;99.90
981;DHT22;479;53.514;9.994;2022-08-18T00:46:11;21.20;99.90
981;DHT22;479;53.514;9.994;2022-08-18T00:48:41;21.20;99.90
981;DHT22;479;53.514;9.994;2022-08-18T00:51:11;21.20;99.90
981;DHT22;479;53.514;9.994;2022-08-18T00:53:41;21.10;99.90
981;DHT22;479;53.514;9.994;2022-08-18T00:56:13;21.10;99.90
981;DHT22;479;53.514;9.994;2022-08-18T00:58:45;21.10;99.90
981;DHT22;479;53.514;9.994;2022-08-18T01:01:15;21.10;99.90
981;DHT22;479;53.514;9.994;2022-08-18T01:03:45;21.10;99.90
981;DHT22;479;53.514;9.994;2022-08-18T01:06:25;21.10;99.90
981;DHT22;479;53.514;9.994;2022-08-18T01:08:53;21.10;99.90
981;DHT22;479;53.514;9.994;2022-08-18T01:11:20;21.10;99.90
981;DHT22;479;53.514;9.994;2022-08-18T01:13:47;21.10;99.90
981;DHT22;479;53.514;9.994;2022-08-18T01:16:16;21.10;99.90
981;DHT22;479;53.514;9.994;2022-08-18T01:19:02;21.00;99.90
981;DHT22;479;53.514;9.994;2022-08-18T01:21:51;21.00;99.90
981;DHT22;479;53.514;9.994;2022-08-18T01:24:25;21.00;99.90
981;DHT22;479;53.514;9.994;2022-08-18T01:27:06;21.00;99.90
981;DHT22;479;53.514;9.994;2022-08-18T01:29:34;20.90;99.90
981;DHT22;479;53.514;9.994;2022-08-18T01:32:02;20.90;99.90
981;DHT22;479;53.514;9.994;2022-08-18T01:34:29;20.90;99.90
981;DHT22;479;53.514;9.994;2022-08-18T01:36:56;20.90;99.90
981;DHT22;479;53.514;9.994;2022-08-18T01:39:25;20.90;99.90
981;DHT22;479;53.514;9.994;2022-08-18T01:41:52;20.90;99.90
981;DHT22;479;53.514;9.994;2022-08-18T01:44:19;20.90;99.90
981;DHT22;479;53.514;9.994;2022-08-18T01:46:45;20.90;99.90
981;DHT22;479;53.514;9.994;2022-08-18T01:49:12;20.80;99.90
981;DHT22;479;53.514;9.994;2022-08-18T01:51:39;20.90;99.90
981;DHT22;479;53.514;9.994;2022-08-18T01:54:10;20.80;99.90
981;DHT22;479;53.514;9.994;2022-08-18T01:56:39;20.80;99.90
981;DHT22;479;53.514;9.994;2022-08-18T01:59:07;20.80;99.90
981;DHT22;479;53.514;9.994;2022-08-18T02:01:40;20.80;99.90
981;DHT22;479;53.514;9.994;2022-08-18T02:04:08;20.80;99.90
981;DHT22;479;53.514;9.994;2022-08-18T02:06:37;20.80;99.90
981;DHT22;479;53.514;9.994;2022-08-18T02:09:05;20.80;99.90
981;DHT22;479;53.514;9.994;2022-08-18T02:11:32;20.80;99.90
981;DHT22;479;53.514;9.994;2022-08-18T02:14:01;20.80;99.90
981;DHT22;479;53.514;9.994;2022-08-18T02:16:28;20.70;99.90
981;DHT22;479;53.514;9.994;2022-08-18T02:18:55;20.60;99.90
981;DHT22;479;53.514;9.994;2022-08-18T02:21:22;20.50;99.90
981;DHT22;479;53.514;9.994;2022-08-18T02:23:49;20.40;99.90
981;DHT22;479;53.514;9.994;2022-08-18T02:26:17;20.40;99.90
981;DHT22;479;53.514;9.994;2022-08-18T02:28:44;20.40;99.90
981;DHT22;479;53.514;9.994;2022-08-18T02:31:14;20.40;99.90
981;DHT22;479;53.514;9.994;2022-08-18T02:33:42;20.40;99.90
981;DHT22;479;53.514;9.994;2022-08-18T02:36:10;20.50;99.90
981;DHT22;479;53.514;9.994;2022-08-18T02:38:37;20.50;99.90
981;DHT22;479;53.514;9.994;2022-08-18T02:41:07;20.40;99.90
981;DHT22;479;53.514;9.994;2022-08-18T02:43:35;20.40;99.90
981;DHT22;479;53.514;9.994;2022-08-18T02:46:03;20.40;99.90
981;DHT22;479;53.514;9.994;2022-08-18T02:48:32;20.40;99.90
981;DHT22;479;53.514;9.994;2022-08-18T02:51:01;20.40;99.90
981;DHT22;479;53.514;9.994;2022-08-18T02:53:29;20.40;99.90
981;DHT22;479;53.514;9.994;2022-08-18T02:56:04;20.30;99.90
981;DHT22;479;53.514;9.994;2022-08-18T02:58:37;20.40;99.90
981;DHT22;479;53.514;9.994;2022-08-18T03:01:04;20.40;99.90
981;DHT22;479;53.514;9.994;2022-08-18T03:03:32;20.40;99.90
981;DHT22;479;53.514;9.994;2022-08-18T03:05:59;20.40;99.90
981;DHT22;479;53.514;9.994;2022-08-18T03:08:26;20.40;99.90
981;DHT22;479;53.514;9.994;2022-08-18T03:10:53;20.40;99.90
981;DHT22;479;53.514;9.994;2022-08-18T03:13:20;20.40;99.90
981;DHT22;479;53.514;9.994;2022-08-18T03:15:47;20.30;99.90
981;DHT22;479;53.514;9.994;2022-08-18T03:18:14;20.30;99.90
981;DHT22;479;53.514;9.994;2022-08-18T03:20:42;20.40;99.90
981;DHT22;479;53.514;9.994;2022-08-18T03:23:10;20.30;99.90
981;DHT22;479;53.514;9.994;2022-08-18T03:25:42;20.30;99.90
981;DHT22;479;53.514;9.994;2022-08-18T03:28:09;20.30;99.90
981;DHT22;479;53.514;9.994;2022-08-18T03:30:36;20.30;99.90
981;DHT22;479;53.514;9.994;2022-08-18T03:33:03;20.30;99.90
981;DHT22;479;53.514;9.994;2022-08-18T03:35:30;20.30;99.90
981;DHT22;479;53.514;9.994;2022-08-18T03:38:01;20.10;99.90
981;DHT22;479;53.514;9.994;2022-08-18T03:40:28;20.10;99.90
981;DHT22;479;53.514;9.994;2022-08-18T03:42:55;20.00;99.90
981;DHT22;479;53.514;9.994;2022-08-18T03:45:22;19.90;99.90
981;DHT22;479;53.514;9.994;2022-08-18T03:47:52;19.90;99.90
981;DHT22;479;53.514;9.994;2022-08-18T03:50:19;19.80;99.90
981;DHT22;479;53.514;9.994;2022-08-18T03:52:46;19.70;99.90
981;DHT22;479;53.514;9.994;2022-08-18T03:55:15;19.70;99.90
981;DHT22;479;53.514;9.994;2022-08-18T03:57:42;19.70;99.90
981;DHT22;479;53.514;9.994;2022-08-18T04:00:09;19.70;99.90
981;DHT22;479;53.514;9.994;2022-08-18T04:02:37;19.80;99.90
981;DHT22;479;53.514;9.994;2022-08-18T04:05:05;19.70;99.90
981;DHT22;479;53.514;9.994;2022-08-18T04:07:32;19.80;99.90
981;DHT22;479;53.514;9.994;2022-08-18T04:09:59;19.90;99.90
981;DHT22;479;53.514;9.994;2022-08-18T04:12:27;20.00;99.90
981;DHT22;479;53.514;9.994;2022-08-18T04:14:54;20.00;99.90
981;DHT22;479;53.514;9.994;2022-08-18T04:17:21;19.90;99.90
981;DHT22;479;53.514;9.994;2022-08-18T04:19:50;19.80;99.90
981;DHT22;479;53.514;9.994;2022-08-18T04:22:17;19.80;99.90
981;DHT22;479;53.514;9.994;2022-08-18T04:24:44;19.80;99.90
981;DHT22;479;53.514;9.994;2022-08-18T04:27:11;19.80;99.90
981;DHT22;479;53.514;9.994;2022-08-18T04:29:39;19.80;99.90
981;DHT22;479;53.514;9.994;2022-08-18T04:32:06;19.80;99.90
981;DHT22;479;53.514;9.994;2022-08-18T04:34:33;20.00;99.90
981;DHT22;479;53.514;9.994;2022-08-18T04:37:01;20.00;99.90
981;DHT22;479;53.514;9.994;2022-08-18T04:39:28;20.10;99.90
981;DHT22;479;53.514;9.994;2022-08-18T04:41:56;20.00;99.90
981;DHT22;479;53.514;9.994;2022-08-18T04:44:23;20.10;99.90
981;DHT22;479;53.514;9.994;2022-08-18T04:46:52;20.10;99.90
981;DHT22;479;53.514;9.994;2022-08-18T04:49:22;20.00;99.90
981;DHT22;479;53.514;9.994;2022-08-18T04:51:51;20.10;99.90
981;DHT22;479;53.514;9.994;2022-08-18T04:54:32;20.20;99.90
981;DHT22;479;53.514;9.994;2022-08-18T04:57:07;20.20;99.90
981;DHT22;479;53.514;9.994;2022-08-18T04:59:34;20.20;99.90
981;DHT22;479;53.514;9.994;2022-08-18T05:02:02;20.30;99.90
981;DHT22;479;53.514;9.994;2022-08-18T05:04:33;20.30;99.90
981;DHT22;479;53.514;9.994;2022-08-18T05:07:03;20.40;99.90
981;DHT22;479;53.514;9.994;2022-08-18T05:09:30;20.40;99.90
981;DHT22;479;53.514;9.994;2022-08-18T05:11:57;20.40;99.90
981;DHT22;479;53.514;9.994;2022-08-18T05:14:24;20.50;99.90
981;DHT22;479;53.514;9.994;2022-08-18T05:16:52;20.50;99.90
981;DHT22;479;53.514;9.994;2022-08-18T05:19:20;20.40;99.90
981;DHT22;479;53.514;9.994;2022-08-18T05:21:49;20.40;99.90
981;DHT22;479;53.514;9.994;2022-08-18T05:24:16;20.40;99.90
981;DHT22;479;53.514;9.994;2022-08-18T05:26:44;20.40;99.90
981;DHT22;479;53.514;9.994;2022-08-18T05:29:11;20.40;99.90
981;DHT22;479;53.514;9.994;2022-08-18T05:31:38;20.50;99.90
981;DHT22;479;53.514;9.994;2022-08-18T05:34:05;20.50;99.90
981;DHT22;479;53.514;9.994;2022-08-18T05:36:56;20.60;99.90
981;DHT22;479;53.514;9.994;2022-08-18T05:39:26;20.60;99.90
981;DHT22;479;53.514;9.994;2022-08-18T05:42:00;20.70;99.90
981;DHT22;479;53.514;9.994;2022-08-18T05:44:31;20.70;99.90
981;DHT22;479;53.514;9.994;2022-08-18T05:47:05;20.70;99.90
981;DHT22;479;53.514;9.994;2022-08-18T05:49:35;20.70;99.90
981;DHT22;479;53.514;9.994;2022-08-18T05:52:06;20.70;99.90
981;DHT22;479;53.514;9.994;2022-08-18T05:54:38;20.70;99.90
981;DHT22;479;53.514;9.994;2022-08-18T05:57:26;20.70;99.90
981;DHT22;479;53.514;9.994;2022-08-18T05:59:56;20.70;99.90
981;DHT22;479;53.514;9.994;2022-08-18T06:02:29;20.70;99.90
981;DHT22;479;53.514;9.994;2022-08-18T06:05:00;20.60;99.90
981;DHT22;479;53.514;9.994;2022-08-18T06:07:35;20.70;99.90
981;DHT22;479;53.514;9.994;2022-08-18T06:10:04;20.70;99.90
981;DHT22;479;53.514;9.994;2022-08-18T06:12:34;20.70;99.90
981;DHT22;479;53.514;9.994;2022-08-18T06:15:11;20.80;99.90
981;DHT22;479;53.514;9.994;2022-08-18T06:18:09;20.70;99.90
981;DHT22;479;53.514;9.994;2022-08-18T06:20:50;20.70;99.90
981;DHT22;479;53.514;9.994;2022-08-18T06:23:28;20.70;99.90
981;DHT22;479;53.514;9.994;2022-08-18T06:26:06;20.70;99.90
981;DHT22;479;53.514;9.994;2022-08-18T06:29:04;20.70;99.90
981;DHT22;479;53.514;9.994;2022-08-18T06:31:38;20.80;99.90
981;DHT22;479;53.514;9.994;2022-08-18T06:34:16;20.80;99.90
981;DHT22;479;53.514;9.994;2022-08-18T06:36:51;20.90;99.90
981;DHT22;479;53.514;9.994;2022-08-18T06:39:25;20.90;99.90
981;DHT22;479;53.514;9.994;2022-08-18T06:41:53;20.50;99.90
981;DHT22;479;53.514;9.994;2022-08-18T06:44:27;20.30;99.90
981;DHT22;479;53.514;9.994;2022-08-18T06:46:58;20.10;99.90
981;DHT22;479;53.514;9.994;2022-08-18T06:49:38;20.00;99.90
981;DHT22;479;53.514;9.994;2022-08-18T06:52:27;20.00;99.90
981;DHT22;479;53.514;9.994;2022-08-18T06:54:58;20.10;99.90
981;DHT22;479;53.514;9.994;2022-08-18T06:57:29;20.20;99.90
981;DHT22;479;53.514;9.994;2022-08-18T06:59:58;20.20;99.90
981;DHT22;479;53.514;9.994;2022-08-18T07:02:36;20.40;99.90
981;DHT22;479;53.514;9.994;2022-08-18T07:05:08;20.30;99.90
981;DHT22;479;53.514;9.994;2022-08-18T07:07:44;20.30;99.90
981;DHT22;479;53.514;9.994;2022-08-18T07:10:28;20.30;99.90
981;DHT22;479;53.514;9.994;2022-08-18T07:13:06;20.20;99.90
981;DHT22;479;53.514;9.994;2022-08-18T07:15:33;20.20;99.90
981;DHT22;479;53.514;9.994;2022-08-18T07:18:03;20.10;99.90
981;DHT22;479;53.514;9.994;2022-08-18T07:20:40;20.10;99.90
981;DHT22;479;53.514;9.994;2022-08-18T07:23:08;20.20;99.90
981;DHT22;479;53.514;9.994;2022-08-18T07:25:50;20.30;99.90
981;DHT22;479;53.514;9.994;2022-08-18T07:28:27;20.30;99.90
981;DHT22;479;53.514;9.994;2022-08-18T07:31:17;20.20;99.90
981;DHT22;479;53.514;9.994;2022-08-18T07:33:51;20.20;99.90
981;DHT22;479;53.514;9.994;2022-08-18T07:36:24;20.30;99.90
981;DHT22;479;53.514;9.994;2022-08-18T07:38:55;20.30;99.90
981;DHT22;479;53.514;9.994;2022-08-18T07:41:29;20.20;99.90
981;DHT22;479;53.514;9.994;2022-08-18T07:44:04;20.30;99.90
981;DHT22;479;53.514;9.994;2022-08-18T07:46:35;20.40;99.90
981;DHT22;479;53.514;9.994;2022-08-18T07:49:05;20.40;99.90
981;DHT22;479;53.514;9.994;2022-08-18T07:51:42;20.40;99.90
981;DHT22;479;53.514;9.994;2022-08-18T07:54:18;20.40;99.90
981;DHT22;479;53.514;9.994;2022-08-18T07:56:54;20.30;99.90
981;DHT22;479;53.514;9.994;2022-08-18T07:59:30;20.40;99.90
981;DHT22;479;53.514;9.994;2022-08-18T08:02:15;20.40;99.90
981;DHT22;479;53.514;9.994;2022-08-18T08:04:48;20.40;99.90
981;DHT22;479;53.514;9.994;2022-08-18T08:07:23;20.40;99.90
981;DHT22;479;53.514;9.994;2022-08-18T08:09:55;20.40;99.90
981;DHT22;479;53.514;9.994;2022-08-18T08:12:34;20.40;99.90
981;DHT22;479;53.514;9.994;2022-08-18T08:15:13;20.40;99.90
981;DHT22;479;53.514;9.994;2022-08-18T08:17:48;20.40;99.90
981;DHT22;479;53.514;9.994;2022-08-18T08:20:25;20.40;99.90
981;DHT22;479;53.514;9.994;2022-08-18T08:23:03;20.50;99.90
981;DHT22;479;53.514;9.994;2022-08-18T08:25:36;20.80;99.90
981;DHT22;479;53.514;9.994;2022-08-18T08:28:18;21.00;99.90
981;DHT22;479;53.514;9.994;2022-08-18T08:30:54;21.20;99.90
981;DHT22;479;53.514;9.994;2022-08-18T08:33:30;21.20;99.90
981;DHT22;479;53.514;9.994;2022-08-18T08:36:03;21.30;99.90
981;DHT22;479;53.514;9.994;2022-08-18T08:38:39;21.30;99.90
981;DHT22;479;53.514;9.994;2022-08-18T08:41:11;21.50;99.90
981;DHT22;479;53.514;9.994;2022-08-18T08:43:43;21.60;99.90
981;DHT22;479;53.514;9.994;2022-08-18T08:46:14;21.50;99.90
981;DHT22;479;53.514;9.994;2022-08-18T08:48:47;21.50;99.90
981;DHT22;479;53.514;9.994;2022-08-18T08:51:33;21.50;99.90
981;DHT22;479;53.514;9.994;2022-08-18T08:54:05;21.50;99.90
981;DHT22;479;53.514;9.994;2022-08-18T08:56:38;21.60;99.90
981;DHT22;479;53.514;9.994;2022-08-18T08:59:10;21.80;99.90
981;DHT22;479;53.514;9.994;2022-08-18T09:01:45;21.70;99.90
981;DHT22;479;53.514;9.994;2022-08-18T09:04:23;21.70;99.90
981;DHT22;479;53.514;9.994;2022-08-18T09:07:05;21.80;99.90
981;DHT22;479;53.514;9.994;2022-08-18T09:09:54;21.90;99.90
981;DHT22;479;53.514;9.994;2022-08-18T09:12:38;22.00;99.90
981;DHT22;479;53.514;9.994;2022-08-18T09:15:22;22.10;99.90
981;DHT22;479;53.514;9.994;2022-08-18T09:18:07;22.30;99.90
981;DHT22;479;53.514;9.994;2022-08-18T09:20:58;22.40;99.90
981;DHT22;479;53.514;9.994;2022-08-18T09:23:31;22.50;99.90
981;DHT22;479;53.514;9.994;2022-08-18T09:26:20;22.60;99.90
981;DHT22;479;53.514;9.994;2022-08-18T09:28:56;22.50;99.90
981;DHT22;479;53.514;9.994;2022-08-18T09:31:25;22.40;99.90
981;DHT22;479;53.514;9.994;2022-08-18T09:34:05;22.50;99.90
981;DHT22;479;53.514;9.994;2022-08-18T09:36:44;22.60;99.90
981;DHT22;479;53.514;9.994;2022-08-18T09:39:20;22.80;99.90
981;DHT22;479;53.514;9.994;2022-08-18T09:42:08;23.00;99.90
981;DHT22;479;53.514;9.994;2022-08-18T09:45:00;23.20;99.90
981;DHT22;479;53.514;9.994;2022-08-18T09:47:58;23.40;99.90
981;DHT22;479;53.514;9.994;2022-08-18T09:50:53;23.30;99.90
981;DHT22;479;53.514;9.994;2022-08-18T09:54:09;23.20;99.90
981;DHT22;479;53.514;9.994;2022-08-18T10:03:18;23.20;99.90
981;DHT22;479;53.514;9.994;2022-08-18T10:06:02;23.20;99.90
981;DHT22;479;53.514;9.994;2022-08-18T10:08:53;23.20;99.90
981;DHT22;479;53.514;9.994;2022-08-18T10:11:39;23.30;99.90
981;DHT22;479;53.514;9.994;2022-08-18T10:14:28;23.20;99.90
981;DHT22;479;53.514;9.994;2022-08-18T10:17:08;23.30;99.90
981;DHT22;479;53.514;9.994;2022-08-18T10:19:49;23.30;99.90
981;DHT22;479;53.514;9.994;2022-08-18T10:22:36;24.00;99.90
981;DHT22;479;53.514;9.994;2022-08-18T10:25:08;24.60;99.90
981;DHT22;479;53.514;9.994;2022-08-18T10:27:48;24.90;99.90
981;DHT22;479;53.514;9.994;2022-08-18T10:34:00;25.00;99.90
981;DHT22;479;53.514;9.994;2022-08-18T10:36:40;24.80;99.90
981;DHT22;479;53.514;9.994;2022-08-18T10:39:11;24.80;99.90
981;DHT22;479;53.514;9.994;2022-08-18T10:41:55;24.80;99.90
981;DHT22;479;53.514;9.994;2022-08-18T10:44:26;24.80;99.90
981;DHT22;479;53.514;9.994;2022-08-18T10:46:54;25.00;99.90
981;DHT22;479;53.514;9.994;2022-08-18T10:49:25;25.00;99.90
981;DHT22;479;53.514;9.994;2022-08-18T10:55:35;25.00;99.90
981;DHT22;479;53.514;9.994;2022-08-18T10:58:23;24.70;99.90
981;DHT22;479;53.514;9.994;2022-08-18T11:01:02;24.80;99.90
981;DHT22;479;53.514;9.994;2022-08-18T11:03:46;24.70;99.90
981;DHT22;479;53.514;9.994;2022-08-18T11:06:18;24.90;99.90
981;DHT22;479;53.514;9.994;2022-08-18T11:08:49;25.40;99.90
981;DHT22;479;53.514;9.994;2022-08-18T11:11:22;25.70;99.90
981;DHT22;479;53.514;9.994;2022-08-18T11:14:01;26.00;99.90
981;DHT22;479;53.514;9.994;2022-08-18T11:16:43;26.00;99.90
981;DHT22;479;53.514;9.994;2022-08-18T11:19:15;25.90;99.90
981;DHT22;479;53.514;9.994;2022-08-18T11:21:45;25.60;99.90
981;DHT22;479;53.514;9.994;2022-08-18T11:24:15;25.40;99.90
981;DHT22;479;53.514;9.994;2022-08-18T11:26:47;25.80;99.90
981;DHT22;479;53.514;9.994;2022-08-18T11:29:26;25.80;99.90
981;DHT22;479;53.514;9.994;2022-08-18T11:31:58;26.20;99.90
981;DHT22;479;53.514;9.994;2022-08-18T11:34:30;25.80;99.90
981;DHT22;479;53.514;9.994;2022-08-18T11:36:59;25.80;99.90
981;DHT22;479;53.514;9.994;2022-08-18T11:39:28;25.80;99.90
981;DHT22;479;53.514;9.994;2022-08-18T11:41:56;25.90;99.90
981;DHT22;479;53.514;9.994;2022-08-18T11:44:29;26.00;99.90
981;DHT22;479;53.514;9.994;2022-08-18T11:47:08;26.10;99.90
981;DHT22;479;53.514;9.994;2022-08-18T11:49:36;25.80;99.90
981;DHT22;479;53.514;9.994;2022-08-18T11:52:18;26.00;99.90
981;DHT22;479;53.514;9.994;2022-08-18T11:54:48;26.20;99.90
981;DHT22;479;53.514;9.994;2022-08-18T11:57:40;26.10;99.90
981;DHT22;479;53.514;9.994;2022-08-18T12:00:35;26.20;99.90
981;DHT22;479;53.514;9.994;2022-08-18T12:03:04;26.30;99.90
981;DHT22;479;53.514;9.994;2022-08-18T12:05:44;26.40;99.90
981;DHT22;479;53.514;9.994;2022-08-18T12:08:17;26.60;99.90
981;DHT22;479;53.514;9.994;2022-08-18T12:10:46;26.60;99.90
981;DHT22;479;53.514;9.994;2022-08-18T12:13:22;26.40;99.90
981;DHT22;479;53.514;9.994;2022-08-18T12:16:08;26.30;99.90
981;DHT22;479;53.514;9.994;2022-08-18T12:18:35;26.40;99.90
981;DHT22;479;53.514;9.994;2022-08-18T12:21:03;26.60;99.90
981;DHT22;479;53.514;9.994;2022-08-18T12:23:30;26.70;99.90
981;DHT22;479;53.514;9.994;2022-08-18T12:25:59;26.80;99.90
981;DHT22;479;53.514;9.994;2022-08-18T12:28:27;26.90;99.90
981;DHT22;479;53.514;9.994;2022-08-18T12:30:54;26.60;99.90
981;DHT22;479;53.514;9.994;2022-08-18T12:33:21;26.30;99.90
981;DHT22;479;53.514;9.994;2022-08-18T12:35:48;26.20;99.90
981;DHT22;479;53.514;9.994;2022-08-18T12:38:14;26.40;99.90
981;DHT22;479;53.514;9.994;2022-08-18T12:40:43;26.30;99.90
981;DHT22;479;53.514;9.994;2022-08-18T12:43:10;26.40;99.90
981;DHT22;479;53.514;9.994;2022-08-18T12:45:39;26.50;99.90
981;DHT22;479;53.514;9.994;2022-08-18T12:48:07;26.70;99.90
981;DHT22;479;53.514;9.994;2022-08-18T12:50:34;26.70;99.90
981;DHT22;479;53.514;9.994;2022-08-18T12:53:01;26.80;99.90
981;DHT22;479;53.514;9.994;2022-08-18T12:55:33;26.70;99.90
981;DHT22;479;53.514;9.994;2022-08-18T12:58:00;26.70;99.90
981;DHT22;479;53.514;9.994;2022-08-18T13:00:28;26.80;99.90
981;DHT22;479;53.514;9.994;2022-08-18T13:02:56;26.90;99.90
981;DHT22;479;53.514;9.994;2022-08-18T13:05:23;26.80;99.90
981;DHT22;479;53.514;9.994;2022-08-18T13:07:50;26.70;99.90
981;DHT22;479;53.514;9.994;2022-08-18T13:10:17;26.70;99.90
981;DHT22;479;53.514;9.994;2022-08-18T13:12:44;26.60;99.90
981;DHT22;479;53.514;9.994;2022-08-18T13:15:11;26.50;99.90
981;DHT22;479;53.514;9.994;2022-08-18T13:17:38;26.70;99.90
981;DHT22;479;53.514;9.994;2022-08-18T13:20:09;26.70;99.90
981;DHT22;479;53.514;9.994;2022-08-18T13:22:37;26.80;99.90
981;DHT22;479;53.514;9.994;2022-08-18T13:25:06;26.80;99.90
981;DHT22;479;53.514;9.994;2022-08-18T13:27:35;27.00;99.90
981;DHT22;479;53.514;9.994;2022-08-18T13:30:04;26.90;99.90
981;DHT22;479;53.514;9.994;2022-08-18T13:32:31;27.00;99.90
981;DHT22;479;53.514;9.994;2022-08-18T13:34:59;27.10;99.90
981;DHT22;479;53.514;9.994;2022-08-18T13:37:27;27.10;99.90
981;DHT22;479;53.514;9.994;2022-08-18T13:39:55;27.10;99.90
981;DHT22;479;53.514;9.994;2022-08-18T13:42:22;27.20;99.90
981;DHT22;479;53.514;9.994;2022-08-18T13:44:49;27.20;99.90
981;DHT22;479;53.514;9.994;2022-08-18T13:47:16;27.20;99.90
981;DHT22;479;53.514;9.994;2022-08-18T13:49:42;27.00;99.90
981;DHT22;479;53.514;9.994;2022-08-18T13:52:11;26.80;99.90
981;DHT22;479;53.514;9.994;2022-08-18T13:54:40;26.80;99.90
981;DHT22;479;53.514;9.994;2022-08-18T13:57:10;26.60;99.90
981;DHT22;479;53.514;9.994;2022-08-18T13:59:38;26.50;99.90
981;DHT22;479;53.514;9.994;2022-08-18T14:02:09;26.60;99.90
981;DHT22;479;53.514;9.994;2022-08-18T14:04:36;26.70;99.90
981;DHT22;479;53.514;9.994;2022-08-18T14:07:04;26.50;99.90
981;DHT22;479;53.514;9.994;2022-08-18T14:09:32;26.50;99.90
981;DHT22;479;53.514;9.994;2022-08-18T14:12:01;26.50;99.90
981;DHT22;479;53.514;9.994;2022-08-18T14:14:29;26.40;99.90
981;DHT22;479;53.514;9.994;2022-08-18T14:16:55;26.30;99.90
981;DHT22;479;53.514;9.994;2022-08-18T14:19:22;26.30;99.90
981;DHT22;479;53.514;9.994;2022-08-18T14:22:06;26.30;99.90
981;DHT22;479;53.514;9.994;2022-08-18T14:24:51;26.20;99.90
981;DHT22;479;53.514;9.994;2022-08-18T14:27:38;26.20;99.90
981;DHT22;479;53.514;9.994;2022-08-18T14:30:07;26.10;99.90
981;DHT22;479;53.514;9.994;2022-08-18T14:32:35;26.00;99.90
981;DHT22;479;53.514;9.994;2022-08-18T14:35:04;26.00;99.90
981;DHT22;479;53.514;9.994;2022-08-18T14:37:31;26.10;99.90
981;DHT22;479;53.514;9.994;2022-08-18T14:39:58;26.10;99.90
981;DHT22;479;53.514;9.994;2022-08-18T14:42:25;26.10;99.90
981;DHT22;479;53.514;9.994;2022-08-18T14:44:54;26.00;99.90
981;DHT22;479;53.514;9.994;2022-08-18T14:47:22;26.00;99.90
981;DHT22;479;53.514;9.994;2022-08-18T14:49:51;26.10;99.90
981;DHT22;479;53.514;9.994;2022-08-18T14:52:18;26.20;99.90
981;DHT22;479;53.514;9.994;2022-08-18T14:54:48;26.20;99.90
981;DHT22;479;53.514;9.994;2022-08-18T14:57:16;26.20;99.90
981;DHT22;479;53.514;9.994;2022-08-18T14:59:51;26.20;99.90
981;DHT22;479;53.514;9.994;2022-08-18T15:02:21;26.20;99.90
981;DHT22;479;53.514;9.994;2022-08-18T15:04:48;26.20;99.90
981;DHT22;479;53.514;9.994;2022-08-18T15:07:15;26.30;99.90
981;DHT22;479;53.514;9.994;2022-08-18T15:09:42;26.30;99.90
981;DHT22;479;53.514;9.994;2022-08-18T15:12:08;26.10;99.90
981;DHT22;479;53.514;9.994;2022-08-18T15:14:35;26.10;99.90
981;DHT22;479;53.514;9.994;2022-08-18T15:17:03;26.20;99.90
981;DHT22;479;53.514;9.994;2022-08-18T15:19:33;26.00;99.90
981;DHT22;479;53.514;9.994;2022-08-18T15:22:00;25.90;99.90
981;DHT22;479;53.514;9.994;2022-08-18T15:24:44;25.90;99.90
981;DHT22;479;53.514;9.994;2022-08-18T15:27:30;25.80;99.90
981;DHT22;479;53.514;9.994;2022-08-18T15:30:00;25.80;99.90
981;DHT22;479;53.514;9.994;2022-08-18T15:32:27;25.80;99.90
981;DHT22;479;53.514;9.994;2022-08-18T15:34:55;25.90;99.90
981;DHT22;479;53.514;9.994;2022-08-18T15:37:22;26.00;99.90
981;DHT22;479;53.514;9.994;2022-08-18T15:39:49;25.90;99.90
981;DHT22;479;53.514;9.994;2022-08-18T15:42:24;25.60;99.90
981;DHT22;479;53.514;9.994;2022-08-18T15:44:50;25.50;99.90
981;DHT22;479;53.514;9.994;2022-08-18T15:47:18;25.60;99.90
981;DHT22;479;53.514;9.994;2022-08-18T15:49:45;25.50;99.90
981;DHT22;479;53.514;9.994;2022-08-18T15:52:13;25.50;99.90
981;DHT22;479;53.514;9.994;2022-08-18T15:54:40;25.50;99.90
981;DHT22;479;53.514;9.994;2022-08-18T15:57:07;25.30;99.90
981;DHT22;479;53.514;9.994;2022-08-18T15:59:37;25.30;99.90
981;DHT22;479;53.514;9.994;2022-08-18T16:02:04;25.20;99.90
981;DHT22;479;53.514;9.994;2022-08-18T16:04:31;25.20;99.90
981;DHT22;479;53.514;9.994;2022-08-18T16:07:01;25.20;99.90
981;DHT22;479;53.514;9.994;2022-08-18T16:09:30;25.20;99.90
981;DHT22;479;53.514;9.994;2022-08-18T16:11:56;25.20;99.90
981;DHT22;479;53.514;9.994;2022-08-18T16:14:23;25.20;99.90
981;DHT22;479;53.514;9.994;2022-08-18T16:16:50;25.20;99.90
981;DHT22;479;53.514;9.994;2022-08-18T16:19:18;25.10;99.90
981;DHT22;479;53.514;9.994;2022-08-18T16:21:45;25.10;99.90
981;DHT22;479;53.514;9.994;2022-08-18T16:24:13;25.10;99.90
981;DHT22;479;53.514;9.994;2022-08-18T16:26:41;25.10;99.90
981;DHT22;479;53.514;9.994;2022-08-18T16:29:09;25.20;99.90
981;DHT22;479;53.514;9.994;2022-08-18T16:31:35;25.10;99.90
981;DHT22;479;53.514;9.994;2022-08-18T16:34:04;25.00;99.90
981;DHT22;479;53.514;9.994;2022-08-18T16:36:31;24.90;99.90
981;DHT22;479;53.514;9.994;2022-08-18T16:38:58;24.80;99.90
981;DHT22;479;53.514;9.994;2022-08-18T16:41:25;24.70;99.90
981;DHT22;479;53.514;9.994;2022-08-18T16:43:53;24.80;99.90
981;DHT22;479;53.514;9.994;2022-08-18T16:46:23;24.80;99.90
981;DHT22;479;53.514;9.994;2022-08-18T16:48:51;24.90;99.90
981;DHT22;479;53.514;9.994;2022-08-18T16:51:19;24.90;99.90
981;DHT22;479;53.514;9.994;2022-08-18T16:53:48;24.90;99.90
981;DHT22;479;53.514;9.994;2022-08-18T16:56:19;24.90;99.90
981;DHT22;479;53.514;9.994;2022-08-18T16:58:46;24.90;99.90
981;DHT22;479;53.514;9.994;2022-08-18T17:01:32;24.90;99.90
981;DHT22;479;53.514;9.994;2022-08-18T17:04:19;24.80;99.90
981;DHT22;479;53.514;9.994;2022-08-18T17:06:47;24.80;99.90
981;DHT22;479;53.514;9.994;2022-08-18T17:09:14;24.80;99.90
981;DHT22;479;53.514;9.994;2022-08-18T17:11:42;24.70;99.90
981;DHT22;479;53.514;9.994;2022-08-18T17:14:09;24.70;99.90
981;DHT22;479;53.514;9.994;2022-08-18T17:16:38;24.60;99.90
981;DHT22;479;53.514;9.994;2022-08-18T17:19:06;24.60;99.90